Waterbury, CT

6:54 AM EDT on October 01, 2014 (GMT -0400)
Overlook | Change Station
CLOSE
Current Station
Personal Weather Station
Location: Waterbury, CT
Elevation: 577 ft
Nearby Weather Stations

Elev 577 ft 41.58 °N, 73.04 °W | Updated 5 seconds ago

Rain
Rain
57.0 °F
Feels Like 57.0 °F
N
2.0
Wind Variable Wind from NE
Gusts 0.0 mph

Today
High -- | Low -- °F
--% Chance of Precip.
Yesterday
High -- | Low -- °F
Precip. -- in
6:48 AM 6:34 PM
Waxing Crescent, 46% visible
Pressure 30.02 in
Visibility 5.0 miles
Clouds Few 500 ft
Scattered Clouds 2300 ft
Overcast 4000 ft
Dew Point 56 °F
Humidity 96%
Rainfall 0.33 in
Snow Depth Not available.
UV 0 out of 12
Pollen 1.50 out of 12
Ozone Good
Flu Activity Not available.
METAR KOXC 010855Z 04008KT 5SM FEW005 SCT023 OVC040 14/11 A3002 RMK AO1 P0003 60005 57003

More Conditions Fewer Conditions

Pressure 30.02 in
Visibility 5.0 miles
Clouds Few 500 ft
Scattered Clouds 2300 ft
Overcast 4000 ft
Dew Point 56 °F
Humidity 96%
Rainfall 0.33 in
Snow Depth Not available.
UV 0 out of 12
Pollen 1.50 out of 12
Ozone Good
Flu Activity Not available.
METAR KOXC 010855Z 04008KT 5SM FEW005 SCT023 OVC040 14/11 A3002 RMK AO1 P0003 60005 57003

More Conditions Fewer Conditions

10-Day Weather Forecast

Almanac

Astronomy

Oct. 01, 2014 Rise Set
Actual Time 6:48 AM EDT 6:34 PM EDT
Civil Twilight 6:21 AM EDT 7:01 PM EDT
Nautical Twilight 5:49 AM EDT 7:33 PM EDT
Astronomical Twilight 5:16 AM EDT 8:06 PM EDT
Moon 1:50 PM EDT 11:59 PM EDT
Length of Visible Light 12h 40m
Length of Day
11h 45m
Tomorrow will be 2m 45s shorter.
Waxing Crescent, 46% of the Moon is Illuminated
Today
Waxing Crescent
Oct 1
First Quarter
Oct 8
Full
Oct 15
Last Quarter
Oct 23
New

Today's Extremes

State Highs State Lows

Community

WunderPhotos

Upload Photos

1,757,910 photos uploaded!

WunderBlogs® & News

Nearby

Air Quality

  Air Quality AQ Index Pollutant
Yesterday Good
PM10
Yesterday Good
OZONE
Current Good
OZONE
Wednesday Good
PM2.5
Wednesday Good
OZONE

Snow Depth

Station Depth Elevation
No new snow has been reported.

Earthquake Activity

City Distance Mag. Time & Date
No recent earthquake activity has been reported nearby.
Minimum magnitude displayed is 2.5.

Coastal Water Temperatures

Place Temperature
Bridgeport, CT 69.1 °F

Nearby Weather Stations